createdAt,value
2023-01-29T00:01:58.388Z,103039.91
2023-01-29T00:04:25.663Z,103029.81
2023-01-29T00:06:52.882Z,103033.03
2023-01-29T00:09:19.435Z,103028.81
2023-01-29T00:11:46.668Z,103035.81
2023-01-29T00:14:13.560Z,103041.78
2023-01-29T00:16:40.155Z,103034.03
2023-01-29T00:19:06.974Z,103026.41
2023-01-29T00:21:34.249Z,103030.59
2023-01-29T00:24:00.843Z,103036.59
2023-01-29T00:26:27.905Z,103022.72
2023-01-29T00:28:55.303Z,103023.06
2023-01-29T00:31:24.745Z,103025.72
2023-01-29T00:33:52.027Z,103016.28
2023-01-29T00:36:21.032Z,103015.53
2023-01-29T00:38:54.717Z,103018.94
2023-01-29T00:41:40.595Z,103018.94
2023-01-29T00:44:26.339Z,103012.72
2023-01-29T00:46:52.948Z,103002.66
2023-01-29T00:49:19.654Z,103006.31
2023-01-29T00:52:06.362Z,103012.19
2023-01-29T00:54:33.274Z,102994.25
2023-01-29T00:57:00.385Z,102990.03
2023-01-29T00:59:27.059Z,102998.00
2023-01-29T01:02:12.144Z,102996.22
2023-01-29T01:04:39.239Z,102992.78
2023-01-29T01:07:06.618Z,102987.59
2023-01-29T01:09:54.239Z,102990.16
2023-01-29T01:12:21.695Z,102997.78
2023-01-29T01:14:48.963Z,103001.22
2023-01-29T01:17:15.669Z,103009.75
2023-01-29T01:19:42.420Z,103018.41
2023-01-29T01:22:09.950Z,103006.97
2023-01-29T01:24:37.696Z,103010.94
2023-01-29T01:27:04.738Z,103004.97
2023-01-29T01:29:31.900Z,103003.09
2023-01-29T01:31:58.987Z,103002.41
2023-01-29T01:34:27.159Z,103003.22
2023-01-29T01:36:55.996Z,103008.31
2023-01-29T01:39:23.406Z,103005.66
2023-01-29T01:41:50.545Z,102999.53
2023-01-29T01:44:51.763Z,103001.44
2023-01-29T01:47:30.155Z,102992.69
2023-01-29T01:50:03.072Z,102997.66
2023-01-29T01:52:32.903Z,103000.22
2023-01-29T01:55:00.340Z,102996.78
2023-01-29T01:57:29.891Z,103003.78
2023-01-29T02:00:11.015Z,103008.75
2023-01-29T02:03:00.181Z,103006.53
2023-01-29T02:05:46.285Z,103004.66
2023-01-29T02:08:33.470Z,103010.53
2023-01-29T02:11:01.508Z,103001.22
2023-01-29T02:13:28.111Z,102998.66
2023-01-29T02:15:55.151Z,103001.97
2023-01-29T02:18:22.114Z,103011.84
2023-01-29T02:21:30.808Z,103010.53
2023-01-29T02:24:14.302Z,103008.97
2023-01-29T02:26:53.666Z,103016.84
2023-01-29T02:29:35.296Z,103025.38
2023-01-29T02:32:05.754Z,103033.22
2023-01-29T02:35:10.646Z,103025.56
2023-01-29T02:37:46.152Z,103020.59
2023-01-29T02:40:25.387Z,103017.84
2023-01-29T02:43:15.173Z,103018.72
2023-01-29T02:45:48.393Z,103023.16
2023-01-29T02:48:24.980Z,103023.94
2023-01-29T02:51:16.975Z,102978.19
2023-01-29T02:54:08.197Z,102981.16
2023-01-29T02:59:50.776Z,102971.84
2023-01-29T03:02:46.817Z,102970.19
2023-01-29T03:05:28.198Z,102972.84
2023-01-29T03:11:31.880Z,102951.56
2023-01-29T03:14:07.988Z,102987.31
2023-01-29T03:16:45.331Z,102976.72
2023-01-29T03:19:39.287Z,102981.22
2023-01-29T03:22:16.184Z,102914.44
2023-01-29T03:28:18.288Z,102922.31
2023-01-29T03:31:13.491Z,102935.16
2023-01-29T03:34:05.449Z,102901.69
2023-01-29T03:37:11.770Z,102930.19
2023-01-29T03:39:46.742Z,102952.28
2023-01-29T03:42:53.076Z,102893.28
2023-01-29T03:46:09.080Z,102899.25
2023-01-29T03:49:08.515Z,102935.31
2023-01-29T03:52:01.945Z,102941.91
2023-01-29T03:54:42.491Z,102901.25
2023-01-29T03:57:56.194Z,102935.13
2023-01-29T04:00:38.504Z,102933.38
2023-01-29T04:03:42.803Z,102939.22
2023-01-29T04:06:46.322Z,102880.91
2023-01-29T04:09:23.524Z,102933.03
2023-01-29T04:12:09.271Z,102877.34
2023-01-29T04:15:01.480Z,102883.44
2023-01-29T04:18:04.634Z,102907.66
2023-01-29T04:20:34.343Z,102900.69
2023-01-29T04:23:31.475Z,102900.81
2023-01-29T04:26:34.935Z,102924.81
2023-01-29T04:30:01.688Z,102918.63
2023-01-29T04:32:46.047Z,102892.19
2023-01-29T04:35:41.820Z,102867.47
2023-01-29T04:38:46.267Z,102919.72
2023-01-29T04:41:26.689Z,102909.41
2023-01-29T04:44:22.523Z,102896.34
2023-01-29T04:46:49.425Z,102898.22
2023-01-29T04:49:41.037Z,102888.78
2023-01-29T04:52:25.947Z,102885.34
2023-01-29T04:55:21.982Z,102881.06
2023-01-29T04:58:26.082Z,102881.81
2023-01-29T05:00:55.449Z,102877.41
2023-01-29T05:03:26.658Z,102885.34
2023-01-29T05:05:55.954Z,102884.47
2023-01-29T05:08:25.688Z,102890.56
2023-01-29T05:10:56.496Z,102896.56
2023-01-29T05:13:26.140Z,102889.47
2023-01-29T05:16:10.550Z,102864.78
2023-01-29T05:18:37.867Z,102898.44
2023-01-29T05:21:18.186Z,102861.47
2023-01-29T05:24:12.045Z,102842.19
2023-01-29T05:26:57.317Z,102888.22
2023-01-29T05:29:24.147Z,102894.13
2023-01-29T05:31:57.400Z,102864.91
2023-01-29T05:35:02.330Z,102846.97
2023-01-29T05:37:37.399Z,102877.06
2023-01-29T05:40:09.953Z,102895.13
2023-01-29T05:42:41.853Z,102858.03
2023-01-29T05:45:15.792Z,102863.97
2023-01-29T05:47:54.790Z,102830.13
2023-01-29T05:50:37.968Z,102859.53
2023-01-29T05:53:15.143Z,102850.47
2023-01-29T05:56:08.411Z,102850.09
2023-01-29T05:58:41.526Z,102801.41
2023-01-29T06:01:22.783Z,102847.53
2023-01-29T06:03:57.735Z,102794.56
2023-01-29T06:06:32.795Z,102803.81
2023-01-29T06:09:08.543Z,102840.66
2023-01-29T06:11:57.962Z,102796.75
2023-01-29T06:14:35.368Z,102793.75
2023-01-29T06:17:05.255Z,102822.28
2023-01-29T06:19:46.194Z,102782.50
2023-01-29T06:24:56.474Z,102805.69
2023-01-29T06:27:41.172Z,102808.44
2023-01-29T06:30:11.746Z,102788.34
2023-01-29T06:32:47.637Z,102838.91
2023-01-29T06:38:27.607Z,102795.81
2023-01-29T06:40:55.315Z,102786.22
2023-01-29T06:43:31.816Z,102818.06
2023-01-29T06:46:02.058Z,102780.16
2023-01-29T06:48:30.435Z,102829.69
2023-01-29T06:51:04.559Z,102770.06
2023-01-29T06:53:37.594Z,102770.94
2023-01-29T06:56:18.433Z,102767.50
2023-01-29T06:58:52.321Z,102763.75
2023-01-29T07:01:34.527Z,102808.31
2023-01-29T07:04:16.850Z,102802.69
2023-01-29T07:06:46.261Z,102798.25
2023-01-29T07:09:20.401Z,102767.97
2023-01-29T07:12:09.651Z,102786.53
2023-01-29T07:14:49.123Z,102787.84
2023-01-29T07:17:22.965Z,102805.81
2023-01-29T07:22:50.834Z,102810.13
2023-01-29T07:25:19.467Z,102794.38
2023-01-29T07:27:49.460Z,102788.22
2023-01-29T07:30:24.896Z,102805.69
2023-01-29T07:33:10.045Z,102807.44
2023-01-29T07:35:45.192Z,102764.34
2023-01-29T07:38:38.990Z,102762.09
2023-01-29T07:41:20.243Z,102783.63
2023-01-29T07:43:55.433Z,102782.88
2023-01-29T07:46:25.932Z,102769.81
2023-01-29T07:48:54.959Z,102774.41
2023-01-29T07:51:24.788Z,102795.66
2023-01-29T07:54:01.465Z,102777.84
2023-01-29T07:57:02.141Z,102752.41
2023-01-29T07:59:57.317Z,102738.56
2023-01-29T08:02:25.131Z,102756.06
2023-01-29T08:08:24.287Z,102794.31
2023-01-29T08:11:17.720Z,102743.91
2023-01-29T08:13:59.672Z,102769.84
2023-01-29T08:16:36.955Z,102742.34
2023-01-29T08:19:31.133Z,102739.78
2023-01-29T08:22:04.506Z,102742.41
2023-01-29T08:24:53.285Z,102729.03
2023-01-29T08:27:25.277Z,102756.63
2023-01-29T08:30:02.275Z,102742.69
2023-01-29T08:32:31.469Z,102752.50
2023-01-29T08:34:58.302Z,102778.84
2023-01-29T08:37:29.898Z,102734.53
2023-01-29T08:40:00.484Z,102712.47
2023-01-29T08:42:27.357Z,102719.63
2023-01-29T08:44:54.112Z,102749.41
2023-01-29T08:47:37.119Z,102739.91
2023-01-29T08:50:05.611Z,102746.75
2023-01-29T08:52:32.192Z,102730.47
2023-01-29T08:54:58.855Z,102709.47
2023-01-29T08:57:27.586Z,102745.09
2023-01-29T08:59:57.265Z,102749.84
2023-01-29T09:02:31.172Z,102696.25
2023-01-29T09:05:03.554Z,102724.41
2023-01-29T09:07:32.393Z,102722.06
2023-01-29T09:10:07.867Z,102694.47
2023-01-29T09:12:37.986Z,102747.38
2023-01-29T09:15:13.267Z,102699.97
2023-01-29T09:17:43.986Z,102735.19
2023-01-29T09:20:28.775Z,102704.50
2023-01-29T09:22:56.829Z,102727.19
2023-01-29T09:25:45.746Z,102727.38
2023-01-29T09:28:13.204Z,102729.81
2023-01-29T09:30:43.309Z,102735.44
2023-01-29T09:33:12.733Z,102711.47
2023-01-29T09:35:43.964Z,102713.81
2023-01-29T09:38:10.836Z,102744.16
2023-01-29T09:40:38.447Z,102753.19
2023-01-29T09:43:12.939Z,102747.69
2023-01-29T09:45:51.129Z,102734.63
2023-01-29T09:48:27.079Z,102717.75
2023-01-29T09:50:58.772Z,102686.72
2023-01-29T09:53:49.706Z,102689.50
2023-01-29T09:56:28.779Z,102674.06
2023-01-29T09:59:01.276Z,102705.69
2023-01-29T10:02:07.600Z,102717.75
2023-01-29T10:04:34.730Z,102721.97
2023-01-29T10:07:31.499Z,102724.63
2023-01-29T10:10:10.798Z,102721.56
2023-01-29T10:12:43.974Z,102714.50
2023-01-29T10:15:31.182Z,102707.84
2023-01-29T10:18:05.031Z,102714.91
2023-01-29T10:20:53.657Z,102696.22
2023-01-29T10:23:26.295Z,102702.72
2023-01-29T10:25:54.568Z,102700.28
2023-01-29T10:28:32.229Z,102696.44
2023-01-29T10:31:05.070Z,102685.84
2023-01-29T10:33:54.188Z,102696.13
2023-01-29T10:36:37.005Z,102682.38
2023-01-29T10:39:03.748Z,102688.66
2023-01-29T10:42:08.949Z,102680.22
2023-01-29T10:45:00.219Z,102683.63
2023-01-29T10:48:08.167Z,102672.53
2023-01-29T10:50:59.647Z,102667.63
2023-01-29T10:53:45.522Z,102678.13
2023-01-29T10:56:23.174Z,102680.47
2023-01-29T10:59:05.544Z,102664.44
2023-01-29T11:01:32.387Z,102666.38
2023-01-29T11:04:03.838Z,102654.81
2023-01-29T11:06:42.569Z,102646.06
2023-01-29T11:12:31.254Z,102602.97
2023-01-29T11:15:27.856Z,102630.50
2023-01-29T11:18:18.338Z,102608.38
2023-01-29T11:21:06.657Z,102592.50
2023-01-29T11:23:47.223Z,102636.31
2023-01-29T11:26:25.634Z,102581.47
2023-01-29T11:29:03.677Z,102607.34
2023-01-29T11:31:41.550Z,102602.34
2023-01-29T11:34:28.575Z,102581.69
2023-01-29T11:40:01.307Z,102587.34
2023-01-29T11:42:46.407Z,102612.13
2023-01-29T11:45:34.007Z,102609.97
2023-01-29T11:48:22.586Z,102567.78
2023-01-29T11:51:07.841Z,102558.78
2023-01-29T11:54:02.499Z,102547.41
2023-01-29T11:56:58.663Z,102533.56
2023-01-29T11:59:34.612Z,102590.84
2023-01-29T12:02:28.436Z,102555.25
2023-01-29T12:05:05.606Z,102560.41
2023-01-29T12:07:45.698Z,102560.50
2023-01-29T12:10:46.163Z,102576.38
2023-01-29T12:13:14.868Z,102580.63
2023-01-29T12:16:01.292Z,102546.50
2023-01-29T12:22:29.233Z,102561.75
2023-01-29T12:25:33.015Z,102513.53
2023-01-29T12:28:20.208Z,102505.69
2023-01-29T12:31:18.093Z,102492.72
2023-01-29T12:33:56.221Z,102535.59
2023-01-29T12:36:52.991Z,102471.09
2023-01-29T12:39:40.125Z,102462.84
2023-01-29T12:42:14.304Z,102453.25
2023-01-29T12:47:49.356Z,102428.53
2023-01-29T12:50:39.575Z,102445.97
2023-01-29T12:53:45.434Z,102459.97
2023-01-29T13:04:20.137Z,102393.69
2023-01-29T13:07:33.794Z,102368.53
2023-01-29T14:44:47.763Z,102298.44
2023-01-29T14:47:23.097Z,102295.50
2023-01-29T14:50:20.060Z,102254.66
2023-01-29T14:53:04.804Z,102250.41
2023-01-29T14:55:50.900Z,102298.78
2023-01-29T14:58:40.974Z,102245.31
2023-01-29T15:02:39.944Z,102256.59
2023-01-29T15:05:56.390Z,102250.41
2023-01-29T15:15:40.466Z,102276.31
2023-01-29T15:19:18.192Z,102277.94
2023-01-29T15:22:06.700Z,102276.88
2023-01-29T15:24:46.765Z,102229.97
2023-01-29T15:30:08.276Z,102210.66
2023-01-29T15:33:01.164Z,102237.72
2023-01-29T15:35:29.535Z,102225.34
2023-01-29T15:38:18.418Z,102251.09
2023-01-29T15:40:59.995Z,102260.50
2023-01-29T15:43:34.913Z,102237.63
2023-01-29T15:46:26.887Z,102221.66
2023-01-29T15:48:59.018Z,102235.91
2023-01-29T15:51:28.098Z,102239.88
2023-01-29T15:54:10.307Z,102251.31
2023-01-29T15:56:46.208Z,102232.50
2023-01-29T15:59:19.774Z,102243.13
2023-01-29T16:01:47.286Z,102252.97
2023-01-29T16:04:21.033Z,102208.31
2023-01-29T16:06:48.857Z,102200.41
2023-01-29T16:09:21.538Z,102229.72
2023-01-29T16:11:48.697Z,102221.78
2023-01-29T16:14:24.839Z,102205.00
2023-01-29T16:16:54.153Z,102200.88
2023-01-29T16:19:26.573Z,102253.44
2023-01-29T16:22:00.083Z,102249.91
2023-01-29T16:24:28.099Z,102241.91
2023-01-29T16:27:14.391Z,102237.47
2023-01-29T16:29:41.646Z,102240.31
2023-01-29T16:32:09.225Z,102229.09
2023-01-29T16:34:44.395Z,102236.13
2023-01-29T16:37:22.086Z,102229.34
2023-01-29T16:39:50.591Z,102230.91
2023-01-29T16:42:22.089Z,102225.81
2023-01-29T16:44:57.862Z,102185.38
2023-01-29T16:47:34.013Z,102195.75
2023-01-29T16:50:40.547Z,102204.41
2023-01-29T16:53:21.688Z,102198.81
2023-01-29T16:55:51.975Z,102177.56
2023-01-29T16:58:24.389Z,102170.28
2023-01-29T17:00:55.868Z,102217.19
2023-01-29T17:03:25.878Z,102204.69
2023-01-29T17:05:56.167Z,102172.19
2023-01-29T17:08:25.455Z,102214.63
2023-01-29T17:10:55.964Z,102158.00
2023-01-29T17:13:49.645Z,102168.31
2023-01-29T17:16:27.578Z,102199.94
2023-01-29T17:18:54.557Z,102189.66
2023-01-29T17:21:24.407Z,102165.28
2023-01-29T17:23:52.099Z,102159.94
2023-01-29T17:26:20.976Z,102181.81
2023-01-29T17:28:51.960Z,102175.22
2023-01-29T17:31:19.538Z,102180.94
2023-01-29T17:33:46.790Z,102120.66
2023-01-29T17:36:16.861Z,102171.25
2023-01-29T17:38:47.158Z,102168.66
2023-01-29T17:41:34.919Z,102167.69
2023-01-29T17:44:01.940Z,102158.34
2023-01-29T17:46:32.598Z,102157.53
2023-01-29T17:48:59.323Z,102142.06
2023-01-29T17:51:26.040Z,102154.97
2023-01-29T17:53:52.696Z,102128.97
2023-01-29T17:56:29.563Z,102143.91
2023-01-29T17:59:13.061Z,102145.44
2023-01-29T18:01:41.610Z,102145.69
2023-01-29T18:04:15.761Z,102099.03
2023-01-29T18:06:45.705Z,102107.28
2023-01-29T18:09:19.028Z,102100.16
2023-01-29T18:11:52.623Z,102058.34
2023-01-29T18:14:19.576Z,102069.19
2023-01-29T18:16:46.454Z,102077.19
2023-01-29T18:19:25.049Z,102085.81
2023-01-29T18:21:52.548Z,102085.50
2023-01-29T18:24:25.016Z,102076.66
2023-01-29T18:26:52.354Z,102067.16
2023-01-29T18:29:19.079Z,102093.66
2023-01-29T18:31:54.689Z,102070.66
2023-01-29T18:34:21.618Z,102053.91
2023-01-29T18:37:06.230Z,102078.25
2023-01-29T18:39:32.838Z,102066.44
2023-01-29T18:41:59.889Z,102037.97
2023-01-29T18:44:34.637Z,102013.28
2023-01-29T18:47:09.513Z,102008.91
2023-01-29T18:49:40.667Z,102016.34
2023-01-29T18:52:10.471Z,102032.72
2023-01-29T18:54:37.681Z,102009.72
2023-01-29T18:57:14.666Z,102003.41
2023-01-29T18:59:59.348Z,102039.31
2023-01-29T19:02:30.216Z,102007.75
2023-01-29T19:04:57.652Z,102043.38
2023-01-29T19:07:26.239Z,102000.47
2023-01-29T19:09:58.162Z,102021.22
2023-01-29T19:12:25.291Z,102010.50
2023-01-29T19:14:57.325Z,102047.75
2023-01-29T19:17:32.600Z,102009.41
2023-01-29T19:20:16.757Z,101995.72
2023-01-29T19:22:46.127Z,102005.72
2023-01-29T19:25:34.601Z,101963.31
2023-01-29T19:28:03.583Z,101984.09
2023-01-29T19:30:42.446Z,101979.28
2023-01-29T19:33:12.543Z,101959.56
2023-01-29T19:35:54.927Z,101957.72
2023-01-29T19:38:24.759Z,102010.38
2023-01-29T19:41:03.221Z,101974.16
2023-01-29T19:43:38.801Z,101974.97
2023-01-29T19:46:09.038Z,101966.50
2023-01-29T19:49:07.768Z,101967.78
2023-01-29T19:51:34.675Z,101971.94
2023-01-29T19:54:10.863Z,101981.97
2023-01-29T19:56:38.464Z,101965.22
2023-01-29T20:01:58.912Z,101996.97
2023-01-29T20:04:29.281Z,101981.47
2023-01-29T20:07:05.807Z,101960.75
2023-01-29T20:09:34.704Z,101945.13
2023-01-29T20:12:02.040Z,101962.16
2023-01-29T20:14:32.538Z,101936.34
2023-01-29T20:17:05.467Z,101962.88
2023-01-29T20:19:45.022Z,101973.22
2023-01-29T20:22:17.337Z,101955.47
2023-01-29T20:24:58.925Z,101975.78
2023-01-29T20:31:07.811Z,101944.78
2023-01-29T20:33:37.493Z,101958.63
2023-01-29T20:36:07.822Z,101950.16
2023-01-29T20:38:39.936Z,101950.56
2023-01-29T20:41:19.600Z,101960.38
2023-01-29T20:43:47.404Z,101947.25
2023-01-29T20:46:16.756Z,101956.97
2023-01-29T20:48:44.123Z,101945.78
2023-01-29T20:51:15.294Z,101939.41
2023-01-29T20:53:50.847Z,101946.66
2023-01-29T20:56:18.449Z,101936.00
2023-01-29T20:58:58.846Z,101936.00
2023-01-29T21:01:25.538Z,101951.94
2023-01-29T21:03:52.523Z,101936.88
2023-01-29T21:06:19.321Z,101965.06
2023-01-29T21:08:46.117Z,101938.25
2023-01-29T21:11:23.031Z,101958.56
2023-01-29T21:13:57.618Z,101917.66
2023-01-29T21:17:05.129Z,101968.50
2023-01-29T21:20:04.149Z,101950.16
2023-01-29T21:22:34.049Z,101956.09
2023-01-29T21:25:05.194Z,101957.03
2023-01-29T21:27:32.419Z,101928.03
2023-01-29T21:30:00.622Z,101917.63
2023-01-29T21:32:31.988Z,101892.91
2023-01-29T21:35:11.933Z,101879.31
2023-01-29T21:37:45.508Z,101873.13
2023-01-29T21:40:16.275Z,101895.34
2023-01-29T21:43:20.114Z,101841.25
2023-01-29T21:45:47.434Z,101819.88
2023-01-29T21:48:24.280Z,101806.44
2023-01-29T21:50:56.425Z,101805.75
2023-01-29T21:53:47.307Z,101820.81
2023-01-29T21:56:19.761Z,101801.13
2023-01-29T21:58:53.504Z,101800.38
2023-01-29T22:01:36.291Z,101803.00
2023-01-29T22:04:15.768Z,101786.59
2023-01-29T22:06:54.497Z,101770.25
2023-01-29T22:09:32.003Z,101805.91
2023-01-29T22:12:19.913Z,101806.50
2023-01-29T22:14:49.924Z,101801.72
2023-01-29T22:17:22.461Z,101766.94
2023-01-29T22:19:54.114Z,101760.09
2023-01-29T22:22:26.330Z,101772.00
2023-01-29T22:24:55.165Z,101799.91
2023-01-29T22:27:24.871Z,101765.97
2023-01-29T22:29:58.312Z,101759.06
2023-01-29T22:38:18.987Z,101745.72
2023-01-29T22:41:03.671Z,101771.88
2023-01-29T22:43:47.506Z,101742.22
2023-01-29T22:46:15.318Z,101757.28
2023-01-29T22:48:54.037Z,101780.78
2023-01-29T22:51:27.842Z,101780.50
2023-01-29T22:56:55.001Z,101782.38
2023-01-29T22:59:56.338Z,101753.63
2023-01-29T23:02:35.664Z,101760.53
2023-01-29T23:07:54.733Z,101719.63
2023-01-29T23:10:24.281Z,101720.56
2023-01-29T23:12:54.205Z,101768.16
2023-01-29T23:15:20.886Z,101734.00
2023-01-29T23:17:51.161Z,101741.78
2023-01-29T23:20:23.148Z,101709.31
2023-01-29T23:22:56.017Z,101713.81
2023-01-29T23:25:48.631Z,101706.16
2023-01-29T23:28:19.020Z,101740.56
2023-01-29T23:30:50.789Z,101737.91
2023-01-29T23:33:23.241Z,101698.88
2023-01-29T23:36:02.919Z,101721.28
2023-01-29T23:38:34.407Z,101713.47
2023-01-29T23:41:04.830Z,101708.09
2023-01-29T23:43:40.811Z,101679.47
2023-01-29T23:46:11.059Z,101675.91
2023-01-29T23:48:41.702Z,101677.84
2023-01-29T23:51:47.355Z,101696.94
2023-01-29T23:54:24.074Z,101698.00
2023-01-29T23:56:58.651Z,101701.63
2023-01-29T23:59:30.272Z,101696.75
